Time;durP1;ratioP1;P1;durP2;ratioP2;P2;SDS_P1;SDS_P2;PMS_P1;PMS_P2;Temp;Humidity;BMP_temperature;BMP_pressure;BME280_temperature;BME280_humidity;BME280_pressure;Samples;Min_cycle;Max_cycle;Signal;HPM_P1;HPM_P2
2022/06/08 00:01:05;;;;;;;34.60;15.80;;;10.90;99.90;;;;;;4994221;28;20034;-84
2022/06/08 00:03:45;;;;;;;53.22;17.48;;;10.90;99.90;;;;;;4992825;28;20046;-84
2022/06/08 00:06:12;;;;;;;43.38;17.08;;;10.90;99.90;;;;;;4994092;28;20085;-84
2022/06/08 00:08:37;;;;;;;37.83;16.60;;;10.90;99.90;;;;;;4992682;28;20073;-84
2022/06/08 00:11:03;;;;;;;36.80;16.42;;;10.90;99.90;;;;;;4992697;28;20051;-84
2022/06/08 00:13:30;;;;;;;47.63;18.00;;;10.80;99.90;;;;;;4992935;28;20401;-84
2022/06/08 00:15:56;;;;;;;38.15;17.05;;;10.80;99.90;;;;;;4993954;28;20053;-84
2022/06/08 00:18:22;;;;;;;41.95;18.08;;;10.80;99.90;;;;;;4994019;28;20045;-79
2022/06/08 00:20:47;;;;;;;58.67;17.65;;;10.80;99.90;;;;;;4993955;28;20050;-78
2022/06/08 00:23:13;;;;;;;40.40;17.50;;;10.70;99.90;;;;;;4992535;28;20560;-78
2022/06/08 00:25:39;;;;;;;37.83;16.55;;;10.70;99.90;;;;;;4993781;28;20048;-78
2022/06/08 00:28:06;;;;;;;38.22;16.10;;;10.70;99.90;;;;;;4996303;28;20046;-78
2022/06/08 00:30:32;;;;;;;34.90;17.38;;;10.70;99.90;;;;;;4996207;28;20057;-78
2022/06/08 00:32:58;;;;;;;40.72;16.60;;;10.60;99.90;;;;;;4996314;28;20125;-78
2022/06/08 00:35:24;;;;;;;31.67;15.20;;;10.60;99.90;;;;;;4996361;28;20129;-78
2022/06/08 00:37:49;;;;;;;32.03;15.82;;;10.50;99.90;;;;;;4996430;28;20133;-78
2022/06/08 00:40:17;;;;;;;33.53;15.70;;;10.50;99.90;;;;;;4996090;28;20125;-78
2022/06/08 00:42:43;;;;;;;36.33;16.38;;;10.50;99.90;;;;;;4997617;28;20054;-78
2022/06/08 00:45:15;;;;;;;41.90;17.42;;;10.40;99.90;;;;;;4997332;28;20046;-78
2022/06/08 00:47:48;;;;;;;42.33;19.70;;;10.40;99.90;;;;;;4997177;28;20047;-78
2022/06/08 00:50:19;;;;;;;45.17;19.15;;;10.50;99.90;;;;;;4996344;28;20050;-78
2022/06/08 00:52:46;;;;;;;42.13;18.77;;;10.50;99.90;;;;;;4996141;28;20505;-78
2022/06/08 00:55:15;;;;;;;49.72;20.55;;;10.50;99.90;;;;;;4996997;28;20051;-78
2022/06/08 00:58:06;;;;;;;53.45;21.63;;;10.50;99.90;;;;;;4996047;28;20394;-78
2022/06/08 01:00:37;;;;;;;50.08;19.48;;;10.50;99.90;;;;;;4997090;28;20129;-79
2022/06/08 01:03:05;;;;;;;42.40;19.35;;;10.50;99.90;;;;;;4995852;28;20367;-78
2022/06/08 01:05:35;;;;;;;49.17;20.65;;;10.50;99.90;;;;;;4997053;28;20046;-78
2022/06/08 01:08:15;;;;;;;42.58;20.67;;;10.50;99.90;;;;;;4995651;28;20069;-78
2022/06/08 01:10:45;;;;;;;46.83;21.08;;;10.40;99.90;;;;;;4996975;28;20049;-78
2022/06/08 01:13:11;;;;;;;48.13;20.38;;;10.50;99.90;;;;;;4996820;28;20074;-78
2022/06/08 01:15:39;;;;;;;45.33;21.02;;;10.40;99.90;;;;;;4995343;28;20100;-78
2022/06/08 01:18:06;;;;;;;47.90;21.02;;;10.40;99.90;;;;;;4996869;28;20042;-78
2022/06/08 01:20:32;;;;;;;45.47;21.35;;;10.40;99.90;;;;;;4996587;28;20509;-78
2022/06/08 01:22:58;;;;;;;47.15;20.58;;;10.40;99.90;;;;;;4996690;28;20136;-79
2022/06/08 01:25:27;;;;;;;45.28;19.92;;;10.40;99.90;;;;;;4996627;28;20038;-78
2022/06/08 01:28:08;;;;;;;53.90;20.27;;;10.40;99.90;;;;;;4995165;28;20103;-78
2022/06/08 01:30:49;;;;;;;46.30;19.65;;;10.30;99.90;;;;;;4995128;28;20062;-78
2022/06/08 01:33:33;;;;;;;46.22;19.80;;;10.30;99.90;;;;;;4996573;28;20038;-79
2022/06/08 01:36:25;;;;;;;45.42;19.25;;;10.30;99.90;;;;;;4995181;28;20050;-78
2022/06/08 01:39:20;;;;;;;48.28;19.15;;;10.30;99.90;;;;;;4995637;28;20065;-78
2022/06/08 01:42:00;;;;;;;49.50;19.50;;;10.30;99.90;;;;;;4995146;28;20089;-79
2022/06/08 01:48:16;;;;;;;48.80;20.60;;;10.30;99.90;;;;;;4990708;28;20039;-78
2022/06/08 01:51:03;;;;;;;51.78;21.88;;;10.30;99.90;;;;;;4995045;28;20139;-78
2022/06/08 01:53:42;;;;;;;46.67;20.58;;;10.40;99.90;;;;;;4995134;28;20105;-78
2022/06/08 01:56:17;;;;;;;48.92;20.35;;;10.30;99.90;;;;;;4994768;28;20057;-79
2022/06/08 01:59:01;;;;;;;47.55;21.42;;;10.30;99.90;;;;;;4994994;28;20476;-78
2022/06/08 02:01:44;;;;;;;50.60;20.75;;;10.30;99.90;;;;;;4994841;28;20054;-78
2022/06/08 02:04:39;;;;;;;45.10;20.25;;;10.20;99.90;;;;;;4994671;28;20054;-79
2022/06/08 02:07:05;;;;;;;42.60;20.33;;;10.10;99.90;;;;;;4990389;28;20125;-78
2022/06/08 02:09:36;;;;;;;46.90;20.42;;;10.10;99.90;;;;;;4995544;28;20133;-78
2022/06/08 02:12:08;;;;;;;38.25;19.50;;;10.10;99.90;;;;;;4994445;28;20088;-78
2022/06/08 02:14:53;;;;;;;48.80;20.50;;;10.10;99.90;;;;;;4994436;28;20046;-78
2022/06/08 02:17:30;;;;;;;41.28;20.13;;;10.00;99.90;;;;;;4994510;28;20050;-78
2022/06/08 02:20:03;;;;;;;46.28;19.85;;;10.10;99.90;;;;;;4995687;28;20050;-78
2022/06/08 02:22:41;;;;;;;39.20;18.80;;;10.00;99.90;;;;;;4995651;28;20046;-78
2022/06/08 02:25:19;;;;;;;48.45;20.83;;;10.10;99.90;;;;;;4995590;28;20048;-78
2022/06/08 02:27:51;;;;;;;40.05;19.75;;;10.00;99.90;;;;;;4994268;28;20073;-78
2022/06/08 02:30:24;;;;;;;49.33;20.70;;;10.10;99.90;;;;;;4993945;28;20065;-78
2022/06/08 02:35:51;;;;;;;55.13;22.80;;;10.20;99.90;;;;;;4995313;28;20072;-78
2022/06/08 02:38:22;;;;;;;45.35;20.63;;;10.20;99.90;;;;;;4995231;28;20470;-78
2022/06/08 02:40:51;;;;;;;49.30;21.48;;;10.20;99.90;;;;;;4993830;28;20093;-78
2022/06/08 02:43:28;;;;;;;56.47;21.50;;;10.20;99.90;;;;;;4993822;28;20039;-78
2022/06/08 02:46:21;;;;;;;49.28;21.08;;;10.30;99.90;;;;;;4993891;28;20482;-78
2022/06/08 02:48:46;;;;;;;55.08;21.45;;;10.30;99.90;;;;;;4993672;28;20042;-78
2022/06/08 02:51:12;;;;;;;53.72;21.45;;;10.40;99.90;;;;;;4993869;28;20053;-78
2022/06/08 02:53:54;;;;;;;55.45;20.83;;;10.40;99.90;;;;;;4993867;28;20379;-78
2022/06/08 02:56:47;;;;;;;61.13;22.77;;;10.40;99.90;;;;;;4993462;28;20054;-78
2022/06/08 02:59:19;;;;;;;53.75;22.45;;;10.50;99.90;;;;;;4993745;28;20050;-78
2022/06/08 03:02:28;;;;;;;56.00;23.67;;;10.50;99.90;;;;;;4993373;28;20054;-78
2022/06/08 03:05:23;;;;;;;67.75;23.20;;;10.60;99.90;;;;;;4948268;28;20069;-78
2022/06/08 03:08:06;;;;;;;59.45;22.88;;;10.60;99.90;;;;;;4992682;28;20047;-78
2022/06/08 03:10:36;;;;;;;60.65;23.10;;;10.70;99.90;;;;;;4993714;28;20072;-79
2022/06/08 03:13:16;;;;;;;53.90;23.10;;;10.70;99.90;;;;;;4993417;28;20042;-79
2022/06/08 03:15:48;;;;;;;58.20;25.13;;;10.70;99.90;;;;;;4993336;28;20046;-79
2022/06/08 03:18:14;;;;;;;56.88;23.88;;;10.80;99.90;;;;;;4993126;28;20085;-78
2022/06/08 03:20:40;;;;;;;60.67;24.60;;;10.80;99.90;;;;;;4994479;28;20046;-78
2022/06/08 03:23:06;;;;;;;58.15;23.40;;;10.80;99.90;;;;;;4992999;28;20046;-78
2022/06/08 03:25:32;;;;;;;59.47;24.58;;;10.80;99.90;;;;;;4994407;28;20050;-78
2022/06/08 03:27:57;;;;;;;56.67;23.80;;;10.80;99.90;;;;;;4994169;28;20058;-78
2022/06/08 03:30:23;;;;;;;57.67;23.52;;;10.80;99.90;;;;;;4992750;28;20138;-78
2022/06/08 03:32:49;;;;;;;61.40;23.65;;;10.80;99.90;;;;;;4993085;28;20129;-78
2022/06/08 03:35:15;;;;;;;56.67;21.50;;;10.70;99.90;;;;;;4993903;28;20444;-78
2022/06/08 03:37:41;;;;;;;58.15;22.25;;;10.70;99.90;;;;;;4994208;28;20511;-78
2022/06/08 03:40:08;;;;;;;50.17;23.13;;;10.70;99.90;;;;;;4993143;28;20042;-78
2022/06/08 03:42:34;;;;;;;67.90;24.75;;;10.80;99.90;;;;;;4993776;28;20050;-79
2022/06/08 03:45:00;;;;;;;54.65;22.77;;;10.70;99.90;;;;;;4994143;28;20169;-78
2022/06/08 03:47:32;;;;;;;52.60;22.45;;;10.70;99.90;;;;;;4993938;28;20498;-79
2022/06/08 03:50:00;;;;;;;54.40;22.75;;;10.70;99.90;;;;;;4994318;28;20054;-79
2022/06/08 03:52:30;;;;;;;58.38;21.10;;;10.70;99.90;;;;;;4992675;28;20049;-79
2022/06/08 03:54:59;;;;;;;55.92;23.42;;;10.70;99.90;;;;;;4992790;28;20042;-79
2022/06/08 03:57:25;;;;;;;49.50;22.33;;;10.70;99.90;;;;;;4994250;28;20070;-79
2022/06/08 03:59:51;;;;;;;54.38;21.30;;;10.70;99.90;;;;;;4994166;28;20074;-79
2022/06/08 04:02:18;;;;;;;43.25;20.70;;;10.70;99.90;;;;;;4996619;28;20529;-78
2022/06/08 04:04:44;;;;;;;55.20;22.33;;;10.70;99.90;;;;;;4998065;28;20031;-79
2022/06/08 04:07:10;;;;;;;53.33;22.08;;;10.70;99.90;;;;;;4996513;28;20449;-79
2022/06/08 04:09:37;;;;;;;52.83;21.92;;;10.80;99.90;;;;;;4998018;28;20034;-79
2022/06/08 04:12:03;;;;;;;52.55;23.05;;;10.80;99.90;;;;;;4996438;28;20046;-79
2022/06/08 04:14:29;;;;;;;51.75;21.40;;;10.90;99.90;;;;;;5118010;22;20091;-79
2022/06/08 04:16:55;;;;;;;54.35;22.45;;;11.00;99.90;;;;;;5037129;28;20076;-79
2022/06/08 04:19:21;;;;;;;52.85;21.08;;;11.00;99.90;;;;;;5035992;28;20092;-79
2022/06/08 04:21:47;;;;;;;52.88;22.15;;;11.10;99.90;;;;;;5035673;28;20045;-79
2022/06/08 04:24:15;;;;;;;47.08;21.98;;;11.20;99.90;;;;;;5036831;28;20053;-79
2022/06/08 04:26:42;;;;;;;61.50;22.25;;;11.10;99.90;;;;;;5036869;28;20038;-79
2022/06/08 04:29:09;;;;;;;54.80;21.67;;;11.20;99.90;;;;;;5035479;28;20050;-79
2022/06/08 04:31:35;;;;;;;50.30;22.15;;;11.30;99.90;;;;;;5035510;28;20076;-79
2022/06/08 04:34:04;;;;;;;49.70;22.40;;;11.50;99.90;;;;;;5036918;28;20143;-79
2022/06/08 04:36:31;;;;;;;58.50;23.70;;;11.50;99.90;;;;;;5035424;28;20174;-79
2022/06/08 04:38:58;;;;;;;56.63;23.42;;;11.60;99.90;;;;;;5036673;28;20041;-79
2022/06/08 04:41:24;;;;;;;56.35;22.20;;;11.70;99.90;;;;;;5036468;28;20041;-79
2022/06/08 04:43:50;;;;;;;56.78;23.20;;;11.70;99.90;;;;;;5035568;28;20128;-79
2022/06/08 04:46:17;;;;;;;60.60;24.95;;;11.80;99.90;;;;;;5036721;28;20565;-79
2022/06/08 04:48:44;;;;;;;55.33;22.85;;;11.80;99.90;;;;;;5036606;28;20045;-79
2022/06/08 04:51:10;;;;;;;57.40;23.35;;;11.80;99.90;;;;;;5035049;28;20493;-78
2022/06/08 04:53:38;;;;;;;60.25;25.20;;;11.80;99.90;;;;;;5035120;28;20498;-78
2022/06/08 04:56:04;;;;;;;56.22;24.13;;;11.90;99.90;;;;;;5034977;28;20164;-78
2022/06/08 04:58:30;;;;;;;60.80;24.25;;;11.80;99.90;;;;;;5035275;28;20049;-78
2022/06/08 05:00:56;;;;;;;59.78;25.10;;;11.90;99.90;;;;;;5034866;28;20056;-79
2022/06/08 05:03:21;;;;;;;60.92;25.02;;;11.90;99.90;;;;;;5036177;28;20046;-79
2022/06/08 05:05:47;;;;;;;64.57;26.08;;;11.90;99.90;;;;;;5036332;28;20077;-78
2022/06/08 05:08:15;;;;;;;61.67;24.02;;;12.00;99.90;;;;;;5035911;28;20460;-78
2022/06/08 05:10:40;;;;;;;62.08;25.33;;;12.00;99.90;;;;;;5034707;28;20111;-78
2022/06/08 05:13:07;;;;;;;66.03;27.42;;;12.10;99.90;;;;;;5035930;28;20057;-79
2022/06/08 05:15:35;;;;;;;66.95;25.75;;;12.10;99.90;;;;;;5035909;28;20370;-79
2022/06/08 05:18:02;;;;;;;66.15;25.13;;;12.20;99.90;;;;;;5034680;28;20088;-78
2022/06/08 05:20:29;;;;;;;65.68;26.40;;;12.20;99.90;;;;;;5036088;28;20052;-78
2022/06/08 05:22:55;;;;;;;66.43;27.08;;;12.30;99.90;;;;;;5035942;28;20044;-79
2022/06/08 05:25:25;;;;;;;62.15;27.13;;;12.30;99.90;;;;;;5034452;28;20045;-79
2022/06/08 05:27:51;;;;;;;61.78;24.73;;;12.30;99.90;;;;;;5035778;28;20041;-79
2022/06/08 05:30:17;;;;;;;68.55;27.73;;;12.30;99.90;;;;;;5035656;28;20033;-79
2022/06/08 05:32:43;;;;;;;64.65;27.23;;;12.40;99.90;;;;;;5034619;28;20053;-78
2022/06/08 05:35:09;;;;;;;70.45;27.67;;;12.50;99.90;;;;;;5035740;28;20064;-78
2022/06/08 05:37:35;;;;;;;66.07;27.25;;;12.60;99.90;;;;;;5034189;28;20539;-78
2022/06/08 05:40:02;;;;;;;73.70;28.08;;;12.60;99.90;;;;;;5034561;28;20481;-78
2022/06/08 05:42:28;;;;;;;71.22;28.55;;;12.70;99.90;;;;;;5034474;28;20053;-78
2022/06/08 05:44:53;;;;;;;71.75;29.45;;;12.80;99.90;;;;;;5034383;28;20441;-76
2022/06/08 05:47:19;;;;;;;80.28;30.00;;;12.90;99.90;;;;;;5034475;28;20114;-78
2022/06/08 05:49:45;;;;;;;80.90;30.60;;;12.90;99.90;;;;;;5035509;28;20037;-78
2022/06/08 05:52:10;;;;;;;76.47;31.00;;;13.00;99.90;;;;;;5035417;28;20132;-78
2022/06/08 05:54:36;;;;;;;78.28;31.80;;;13.10;99.90;;;;;;5034220;28;20069;-78
2022/06/08 05:57:03;;;;;;;75.80;31.38;;;13.10;99.90;;;;;;5033811;28;20049;-78
2022/06/08 05:59:29;;;;;;;77.20;31.88;;;13.20;99.90;;;;;;5033965;28;20049;-79
2022/06/08 06:01:55;;;;;;;69.78;30.23;;;13.30;99.90;;;;;;5034117;28;20041;-78
2022/06/08 06:04:21;;;;;;;83.43;32.22;;;13.40;99.90;;;;;;5033780;28;20515;-78
2022/06/08 06:06:47;;;;;;;77.13;31.73;;;13.50;99.90;;;;;;5033687;28;20069;-78
2022/06/08 06:09:18;;;;;;;77.35;30.65;;;13.60;99.90;;;;;;5033728;28;20052;-78
2022/06/08 06:11:45;;;;;;;80.60;30.83;;;13.70;99.90;;;;;;5034890;28;20497;-78
2022/06/08 06:14:11;;;;;;;71.15;29.38;;;13.80;99.90;;;;;;5033551;28;20100;-78
2022/06/08 06:16:37;;;;;;;70.38;31.38;;;13.80;99.90;;;;;;5034779;28;20053;-77
2022/06/08 06:19:03;;;;;;;67.18;28.23;;;14.00;99.90;;;;;;5034639;28;20439;-78
2022/06/08 06:21:29;;;;;;;68.45;30.35;;;14.10;99.90;;;;;;5033687;28;20052;-78
2022/06/08 06:23:58;;;;;;;65.53;29.10;;;14.10;99.90;;;;;;5034389;28;20037;-78
2022/06/08 06:26:23;;;;;;;68.43;30.42;;;14.20;99.90;;;;;;5026425;28;20503;-78
2022/06/08 06:28:49;;;;;;;64.45;30.38;;;14.40;99.90;;;;;;5018253;28;20589;-78
2022/06/08 06:31:42;;;;;;;75.63;28.70;;;14.70;99.90;;;;;;5014466;28;20148;-78
2022/06/08 06:34:11;;;;;;;69.10;26.73;;;15.00;99.90;;;;;;5014775;28;20073;-78
2022/06/08 06:36:37;;;;;;;61.42;27.50;;;15.10;99.90;;;;;;5014499;28;20124;-77
2022/06/08 06:39:03;;;;;;;62.45;27.27;;;15.10;99.90;;;;;;5013538;28;20137;-78
2022/06/08 06:41:29;;;;;;;58.65;27.77;;;15.10;99.90;;;;;;5013312;28;20056;-78
2022/06/08 06:43:55;;;;;;;60.00;27.63;;;15.00;99.90;;;;;;5013325;28;20448;-78
2022/06/08 06:46:21;;;;;;;60.15;27.92;;;15.10;99.90;;;;;;5014486;28;20042;-78
2022/06/08 06:48:46;;;;;;;64.80;27.67;;;15.10;99.90;;;;;;5013269;28;20049;-79
2022/06/08 06:51:12;;;;;;;60.55;27.88;;;15.20;99.90;;;;;;5014494;28;20489;-79
2022/06/08 06:53:38;;;;;;;64.00;28.50;;;15.30;99.90;;;;;;5014353;28;20053;-79
2022/06/08 06:56:04;;;;;;;64.43;27.98;;;15.30;99.90;;;;;;5014348;28;20045;-79
2022/06/08 06:58:30;;;;;;;60.70;27.58;;;15.50;99.90;;;;;;5013099;28;20486;-78
2022/06/08 07:00:56;;;;;;;54.88;25.67;;;15.90;99.90;;;;;;5013095;28;20060;-79
2022/06/08 07:03:22;;;;;;;51.22;24.50;;;16.10;99.90;;;;;;5014134;28;20037;-78
2022/06/08 07:05:48;;;;;;;54.40;24.00;;;16.20;99.90;;;;;;5013117;28;20406;-78
2022/06/08 07:08:14;;;;;;;53.15;25.40;;;16.30;99.90;;;;;;5014185;28;20049;-80
2022/06/08 07:10:39;;;;;;;57.10;24.10;;;16.40;99.90;;;;;;5012591;28;20050;-78
2022/06/08 07:13:05;;;;;;;47.95;23.27;;;16.60;99.90;;;;;;5012420;28;20050;-81
2022/06/08 07:15:31;;;;;;;53.03;22.45;;;16.80;99.90;;;;;;5012243;28;20058;-79
2022/06/08 07:17:56;;;;;;;46.50;20.38;;;17.00;99.90;;;;;;5025185;28;20069;-79
2022/06/08 07:20:23;;;;;;;43.83;20.65;;;17.10;99.90;;;;;;5032251;28;20041;-79
2022/06/08 07:22:50;;;;;;;43.40;21.52;;;17.10;99.90;;;;;;5032523;28;20041;-78
2022/06/08 07:25:16;;;;;;;40.75;19.42;;;17.00;99.90;;;;;;5033387;28;20568;-78
2022/06/08 07:27:43;;;;;;;40.08;18.77;;;17.00;99.90;;;;;;5033419;28;20146;-79
2022/06/08 07:30:09;;;;;;;42.95;19.83;;;17.10;99.90;;;;;;5033608;28;20037;-78
2022/06/08 07:32:35;;;;;;;42.83;18.70;;;17.20;99.90;;;;;;5032100;28;20041;-79
2022/06/08 07:35:03;;;;;;;37.47;17.45;;;17.30;99.90;;;;;;5032114;28;20068;-79
2022/06/08 07:37:29;;;;;;;33.28;17.55;;;17.40;99.90;;;;;;5031654;28;20049;-79
2022/06/08 07:39:56;;;;;;;32.60;16.00;;;17.40;99.90;;;;;;5031909;28;20052;-79
2022/06/08 07:42:21;;;;;;;29.48;15.13;;;17.60;99.90;;;;;;5033254;28;20421;-79
2022/06/08 07:44:48;;;;;;;27.85;13.88;;;17.40;99.90;;;;;;5032172;28;20076;-78
2022/06/08 07:47:14;;;;;;;32.38;13.07;;;17.50;99.90;;;;;;5031390;28;20147;-79
2022/06/08 07:49:42;;;;;;;26.15;11.95;;;17.50;99.90;;;;;;5026545;28;20405;-79
2022/06/08 07:52:19;;;;;;;24.42;12.18;;;17.70;99.90;;;;;;5023326;28;20481;-79
2022/06/08 07:54:45;;;;;;;28.77;13.63;;;17.80;99.90;;;;;;5032103;28;20499;-79
2022/06/08 07:57:23;;;;;;;30.70;13.90;;;17.80;99.90;;;;;;5032578;28;20060;-79
2022/06/08 07:59:50;;;;;;;28.25;13.98;;;17.80;99.90;;;;;;5033277;28;20052;-79
2022/06/08 08:02:16;;;;;;;28.63;13.48;;;17.70;99.90;;;;;;5033051;28;20041;-79
2022/06/08 08:04:42;;;;;;;27.75;14.23;;;17.70;99.90;;;;;;5032950;28;20045;-79
2022/06/08 08:07:08;;;;;;;29.83;14.80;;;17.70;99.90;;;;;;5033120;28;20057;-79
2022/06/08 08:09:34;;;;;;;27.35;14.02;;;17.60;99.90;;;;;;5033096;28;20129;-80
2022/06/08 08:12:01;;;;;;;29.73;14.27;;;17.50;99.90;;;;;;5030427;28;20180;-79
2022/06/08 08:14:27;;;;;;;26.67;12.55;;;17.60;99.90;;;;;;5031081;28;20064;-79
2022/06/08 08:16:54;;;;;;;25.60;13.05;;;17.70;99.90;;;;;;5030860;28;20067;-91
2022/06/08 08:19:22;;;;;;;29.25;14.00;;;17.80;99.90;;;;;;5030382;28;20049;-83
2022/06/08 08:21:49;;;;;;;26.58;11.85;;;17.90;99.90;;;;;;5031530;28;20077;-87
2022/06/08 08:24:15;;;;;;;29.15;13.70;;;18.00;99.90;;;;;;5032547;28;20366;-92
2022/06/08 08:26:44;;;;;;;28.23;12.45;;;17.90;99.90;;;;;;5030986;28;20127;-91
2022/06/08 08:29:10;;;;;;;28.52;12.20;;;17.90;99.90;;;;;;5032696;28;20050;-94
2022/06/08 08:31:37;;;;;;;28.10;12.13;;;17.90;99.90;;;;;;5030930;28;20096;-95
2022/06/08 08:34:04;;;;;;;26.50;13.02;;;17.80;99.90;;;;;;5031751;28;20049;-89
2022/06/08 08:36:30;;;;;;;29.42;14.40;;;17.70;99.90;;;;;;5032935;28;20050;-89
2022/06/08 08:38:57;;;;;;;29.42;13.63;;;17.80;99.90;;;;;;5031554;28;20052;-89
2022/06/08 08:44:38;;;;;;;29.38;13.82;;;18.00;99.90;;;;;;5032980;28;20037;-89
2022/06/08 08:47:38;;;;;;;26.70;12.95;;;18.00;99.90;;;;;;5031417;28;20077;-84
2022/06/08 08:50:16;;;;;;;29.45;14.02;;;18.00;99.90;;;;;;5036013;28;20077;-89
2022/06/08 08:53:08;;;;;;;25.77;13.15;;;18.00;99.90;;;;;;5035515;28;20516;-86
2022/06/08 08:55:47;;;;;;;33.40;12.38;;;18.10;99.90;;;;;;5018470;28;20052;-87
2022/06/08 08:58:17;;;;;;;20.65;10.57;;;18.10;99.90;;;;;;5037263;28;20405;-96
2022/06/08 09:00:52;;;;;;;19.48;8.10;;;18.10;99.90;;;;;;5016056;28;20486;-85
2022/06/08 09:03:21;;;;;;;18.95;8.02;;;17.80;99.90;;;;;;5014833;28;20072;-94
2022/06/08 09:05:48;;;;;;;20.65;8.35;;;17.70;99.90;;;;;;5123835;22;20454;-91
2022/06/08 09:08:16;;;;;;;19.83;9.55;;;17.70;99.90;;;;;;5017651;28;20406;-95
2022/06/08 09:10:43;;;;;;;18.13;9.68;;;17.70;99.90;;;;;;5015318;28;20041;-94
2022/06/08 09:13:44;;;;;;;22.35;10.73;;;17.60;99.90;;;;;;5027524;28;20133;-82
2022/06/08 09:16:24;;;;;;;23.00;10.23;;;17.70;99.90;;;;;;5040070;28;20128;-95
2022/06/08 09:18:49;;;;;;;28.25;11.05;;;17.80;99.90;;;;;;5036681;28;20542;-92
2022/06/08 09:21:35;;;;;;;27.23;11.85;;;17.90;99.90;;;;;;5035107;28;20053;-84
2022/06/08 09:24:16;;;;;;;25.70;13.27;;;18.10;99.90;;;;;;5035194;28;20049;-87
2022/06/08 09:26:42;;;;;;;28.67;12.77;;;18.20;99.90;;;;;;5035647;28;20049;-88
2022/06/08 09:29:23;;;;;;;26.40;13.77;;;18.40;99.90;;;;;;5034717;28;20389;-90
2022/06/08 09:31:50;;;;;;;27.67;12.98;;;18.40;99.90;;;;;;5035770;28;20046;-86
2022/06/08 09:34:53;;;;;;;28.13;14.05;;;18.30;99.90;;;;;;5034666;28;20072;-92
2022/06/08 09:37:26;;;;;;;24.88;13.35;;;18.40;99.90;;;;;;5167672;22;20106;-92
2022/06/08 09:39:58;;;;;;;26.80;14.07;;;18.40;99.90;;;;;;5057661;28;20408;-89
2022/06/08 09:42:42;;;;;;;24.33;13.88;;;18.50;99.90;;;;;;5054780;28;20033;-94
2022/06/08 09:45:26;;;;;;;27.83;14.20;;;18.60;99.90;;;;;;5055739;28;20056;-94
2022/06/08 09:53:54;;;;;;;19.75;11.57;;;19.10;99.90;;;;;;5056466;28;20389;-96
2022/06/08 09:56:45;;;;;;;20.85;11.85;;;19.20;99.90;;;;;;5056087;28;20385;-95
2022/06/08 09:59:40;;;;;;;22.17;13.05;;;19.60;99.90;;;;;;5053135;28;20049;-95
2022/06/08 10:02:08;;;;;;;25.15;14.80;;;19.90;99.90;;;;;;5057274;28;20056;-92
2022/06/08 10:04:45;;;;;;;26.27;15.43;;;20.30;99.90;;;;;;5054302;28;20041;-96
2022/06/08 10:07:35;;;;;;;29.45;15.68;;;20.30;99.90;;;;;;5058110;28;20045;-93
2022/06/08 10:10:13;;;;;;;26.88;16.30;;;20.20;99.90;;;;;;5064587;28;20109;-95
2022/06/08 10:12:48;;;;;;;23.85;16.70;;;20.20;99.90;;;;;;5066488;28;20487;-90
2022/06/08 10:15:30;;;;;;;26.02;16.58;;;20.30;99.90;;;;;;5054560;28;20119;-91
2022/06/08 10:18:13;;;;;;;23.23;14.65;;;20.30;99.90;;;;;;5054128;28;20052;-87
2022/06/08 10:20:46;;;;;;;22.35;13.18;;;20.40;99.90;;;;;;5066007;28;20477;-87
2022/06/08 10:23:40;;;;;;;20.27;13.10;;;20.70;99.90;;;;;;5054564;28;20060;-84
2022/06/08 10:26:09;;;;;;;21.08;14.48;;;20.60;99.90;;;;;;5053034;28;20049;-87
2022/06/08 10:28:41;;;;;;;23.63;14.80;;;20.50;99.90;;;;;;5054821;28;20033;-89
2022/06/08 10:31:28;;;;;;;20.17;13.10;;;20.40;99.90;;;;;;5054297;28;20542;-91
2022/06/08 10:34:10;;;;;;;20.67;13.40;;;20.50;99.90;;;;;;5053990;28;20044;-89
2022/06/08 10:36:37;;;;;;;19.90;12.93;;;20.60;99.90;;;;;;5054388;28;20103;-88
2022/06/08 10:39:08;;;;;;;14.82;9.57;;;20.90;99.90;;;;;;5052796;28;20053;-82
2022/06/08 10:44:43;;;;;;;13.13;8.65;;;21.30;99.90;;;;;;5054362;28;20049;-82
2022/06/08 10:47:12;;;;;;;16.23;9.18;;;21.10;99.90;;;;;;5050058;28;20060;-82
2022/06/08 10:49:37;;;;;;;13.07;9.00;;;21.20;99.90;;;;;;5052840;28;20503;-82
2022/06/08 10:52:26;;;;;;;13.93;8.52;;;21.00;99.90;;;;;;5042749;28;20041;-81
2022/06/08 10:54:54;;;;;;;10.10;8.23;;;21.00;99.90;;;;;;5047432;28;20481;-81
2022/06/08 10:57:35;;;;;;;14.13;8.07;;;21.10;99.90;;;;;;5045230;28;20429;-81
2022/06/08 11:00:19;;;;;;;13.50;8.13;;;21.20;99.90;;;;;;5053386;28;20120;-81
2022/06/08 11:03:02;;;;;;;13.77;8.70;;;21.10;99.90;;;;;;5054135;28;20045;-81
2022/06/08 11:05:36;;;;;;;12.75;8.10;;;21.10;99.90;;;;;;5052976;28;20052;-80
2022/06/08 11:08:02;;;;;;;14.93;8.52;;;21.00;99.90;;;;;;5054198;28;20497;-80
2022/06/08 11:13:22;;;;;;;15.60;8.75;;;20.60;99.90;;;;;;5052684;28;20106;-80
2022/06/08 11:15:54;;;;;;;12.88;7.90;;;20.50;99.90;;;;;;5052619;28;20504;-81
2022/06/08 11:18:35;;;;;;;11.87;7.30;;;20.40;99.90;;;;;;5051867;28;20033;-81
2022/06/08 11:21:16;;;;;;;12.05;7.82;;;20.30;99.90;;;;;;5051422;28;20076;-81
2022/06/08 11:24:04;;;;;;;17.63;8.70;;;20.10;99.90;;;;;;5050859;28;20056;-83
2022/06/08 11:26:36;;;;;;;13.88;8.10;;;19.90;99.90;;;;;;5046341;28;20087;-80
2022/06/08 11:29:17;;;;;;;13.43;8.48;;;19.70;99.90;;;;;;5053231;28;20086;-80
2022/06/08 11:31:42;;;;;;;12.32;8.80;;;19.50;99.90;;;;;;5052182;28;20049;-81
2022/06/08 11:34:20;;;;;;;16.67;9.57;;;19.50;99.90;;;;;;5053789;28;20091;-81
2022/06/08 11:37:21;;;;;;;21.15;11.63;;;19.40;99.90;;;;;;5053357;28;20055;-81
2022/06/08 11:40:10;;;;;;;30.00;13.88;;;19.30;99.90;;;;;;5052122;28;20057;-82
2022/06/08 11:42:44;;;;;;;22.25;7.25;;;18.40;99.90;;;;;;5053460;28;20447;-84
2022/06/08 11:45:19;;;;;;;20.08;6.47;;;17.70;99.90;;;;;;5052382;28;20116;-81
2022/06/08 11:47:49;;;;;;;13.65;6.25;;;17.50;99.90;;;;;;5052505;28;20055;-80
2022/06/08 11:50:18;;;;;;;14.80;6.57;;;17.30;99.90;;;;;;5052227;28;20041;-80
2022/06/08 11:52:47;;;;;;;17.63;8.02;;;17.30;99.90;;;;;;5052225;28;20518;-81
2022/06/08 11:55:18;;;;;;;16.73;8.45;;;17.10;99.90;;;;;;5052144;28;20053;-79
2022/06/08 11:57:49;;;;;;;19.52;8.48;;;17.20;99.90;;;;;;5052365;28;20049;-88
2022/06/08 12:00:31;;;;;;;16.85;9.30;;;17.10;99.90;;;;;;5052185;28;20045;-86
2022/06/08 12:03:02;;;;;;;15.55;9.20;;;17.00;99.90;;;;;;5053467;28;20045;-85
2022/06/08 12:05:31;;;;;;;16.55;10.07;;;17.00;99.90;;;;;;5052157;28;20063;-84
2022/06/08 12:08:07;;;;;;;18.77;10.52;;;17.00;99.90;;;;;;5052105;28;20515;-87
2022/06/08 12:10:35;;;;;;;21.15;11.80;;;17.00;99.90;;;;;;5053229;28;20116;-85
2022/06/08 12:13:01;;;;;;;21.50;10.57;;;17.00;99.90;;;;;;5053169;28;20103;-82
2022/06/08 12:15:34;;;;;;;15.98;10.88;;;17.00;99.90;;;;;;5052967;28;20427;-82
2022/06/08 12:18:24;;;;;;;18.95;11.02;;;17.10;99.90;;;;;;5051773;28;20053;-83
2022/06/08 12:21:07;;;;;;;24.00;12.23;;;17.20;99.90;;;;;;5053192;28;20120;-83
2022/06/08 12:24:04;;;;;;;21.83;11.60;;;17.30;99.90;;;;;;5056250;28;20094;-83
2022/06/08 12:26:58;;;;;;;21.10;12.35;;;17.40;99.90;;;;;;5055742;28;20041;-83
2022/06/08 12:29:38;;;;;;;22.40;12.80;;;17.50;99.90;;;;;;5054027;28;20056;-84
2022/06/08 12:32:07;;;;;;;23.80;13.43;;;17.40;99.90;;;;;;5055788;28;20064;-82
2022/06/08 12:34:34;;;;;;;26.65;14.98;;;17.40;99.90;;;;;;5057002;28;20041;-82
2022/06/08 12:37:28;;;;;;;28.23;16.05;;;17.60;99.90;;;;;;5055234;28;20150;-84
2022/06/08 12:39:57;;;;;;;30.17;15.25;;;17.60;99.90;;;;;;5055321;28;20460;-80
2022/06/08 12:42:37;;;;;;;26.73;14.82;;;17.70;99.90;;;;;;5056555;28;20503;-80
2022/06/08 12:45:03;;;;;;;27.60;15.90;;;17.70;99.90;;;;;;5056596;28;20568;-80
2022/06/08 12:47:45;;;;;;;30.27;15.75;;;17.70;99.90;;;;;;5055185;28;20496;-81
2022/06/08 12:50:15;;;;;;;32.72;17.13;;;17.70;99.90;;;;;;5055149;28;20099;-81
2022/06/08 12:52:43;;;;;;;31.77;15.43;;;17.70;99.90;;;;;;5055079;28;20475;-81
2022/06/08 12:55:19;;;;;;;33.38;16.48;;;17.70;99.90;;;;;;5055054;28;20049;-81
2022/06/08 12:57:46;;;;;;;31.58;16.90;;;17.70;99.90;;;;;;5056778;28;20551;-81
2022/06/08 13:00:16;;;;;;;39.28;19.10;;;17.70;99.90;;;;;;5055217;28;20048;-81
2022/06/08 13:02:42;;;;;;;34.50;18.73;;;17.80;99.90;;;;;;5054882;28;20132;-81
2022/06/08 13:05:21;;;;;;;37.10;19.85;;;17.70;99.90;;;;;;5054878;28;20044;-81
2022/06/08 13:07:48;;;;;;;39.42;21.00;;;17.90;99.90;;;;;;5054775;28;20053;-81
2022/06/08 13:10:14;;;;;;;35.25;19.63;;;17.70;99.90;;;;;;5054792;28;20041;-80
2022/06/08 13:12:50;;;;;;;31.70;18.88;;;17.70;99.90;;;;;;5056279;28;20049;-81